createdAt,value
2017-09-30T00:02:21.925Z,101416.68
2017-09-30T00:04:50.705Z,101419.31
2017-09-30T00:07:19.376Z,101415.89
2017-09-30T00:09:47.980Z,101418.53
2017-09-30T00:12:16.598Z,101410.39
2017-09-30T00:14:45.275Z,101420.42
2017-09-30T00:17:13.908Z,101423.47
2017-09-30T00:19:42.560Z,101420.05
2017-09-30T00:22:11.189Z,101416.67
2017-09-30T00:24:39.837Z,101417.00
2017-09-30T00:27:23.033Z,101415.84
2017-09-30T00:30:06.725Z,101405.95
2017-09-30T00:32:49.110Z,101410.75
2017-09-30T00:35:31.340Z,101414.31
2017-09-30T00:38:03.075Z,101411.86
2017-09-30T00:40:34.694Z,101405.03
2017-09-30T00:43:06.038Z,101402.25
2017-09-30T00:45:37.837Z,101398.92
2017-09-30T00:48:09.221Z,101399.38
2017-09-30T00:50:40.356Z,101397.91
2017-09-30T00:53:11.826Z,101397.76
2017-09-30T00:55:41.659Z,101392.50
2017-09-30T00:58:11.601Z,101396.47
2017-09-30T01:00:41.539Z,101386.58
2017-09-30T01:03:10.260Z,101386.40
2017-09-30T01:05:38.937Z,101382.94
2017-09-30T01:08:07.562Z,101370.64
2017-09-30T01:10:36.251Z,101375.71
2017-09-30T01:13:04.891Z,101372.25
2017-09-30T01:15:33.535Z,101377.00
2017-09-30T01:18:02.206Z,101380.00
2017-09-30T01:20:30.836Z,101378.30
2017-09-30T01:22:59.549Z,101359.84
2017-09-30T01:25:27.862Z,101366.77
2017-09-30T01:27:56.578Z,101368.14
2017-09-30T01:30:24.874Z,101368.56
2017-09-30T01:32:53.557Z,101368.41
2017-09-30T01:35:22.198Z,101365.36
2017-09-30T01:37:50.907Z,101366.10
2017-09-30T01:40:19.209Z,101360.56
2017-09-30T01:42:47.518Z,101365.03
2017-09-30T01:45:16.212Z,101356.08
2017-09-30T01:47:44.827Z,101355.70
2017-09-30T01:50:13.507Z,101347.30
2017-09-30T01:52:41.824Z,101344.67
2017-09-30T01:55:10.541Z,101347.62
2017-09-30T01:57:39.224Z,101347.21
2017-09-30T02:00:07.597Z,101351.13
2017-09-30T02:02:35.901Z,101339.17
2017-09-30T02:05:04.601Z,101334.05
2017-09-30T02:07:33.213Z,101336.85
2017-09-30T02:10:01.866Z,101336.58
2017-09-30T02:12:30.609Z,101340.37
2017-09-30T02:14:59.229Z,101339.16
2017-09-30T02:17:27.893Z,101338.66
2017-09-30T02:19:56.516Z,101340.04
2017-09-30T02:22:24.893Z,101340.88
2017-09-30T02:24:53.562Z,101335.17
2017-09-30T02:27:22.177Z,101338.05
2017-09-30T02:29:50.828Z,101341.05
2017-09-30T02:32:19.457Z,101341.51
2017-09-30T02:34:48.113Z,101338.59
2017-09-30T02:37:16.731Z,101349.81
2017-09-30T02:39:45.385Z,101344.28
2017-09-30T02:42:14.001Z,101340.17
2017-09-30T02:44:42.650Z,101348.34
2017-09-30T02:47:11.314Z,101352.25
2017-09-30T02:49:39.959Z,101357.88
2017-09-30T02:52:08.720Z,101368.59
2017-09-30T02:54:37.185Z,101359.17
2017-09-30T02:57:05.879Z,101352.30
2017-09-30T02:59:34.526Z,101348.42
2017-09-30T03:02:03.190Z,101351.09
2017-09-30T03:04:31.842Z,101349.80
2017-09-30T03:07:00.486Z,101346.80
2017-09-30T03:09:29.189Z,101337.93
2017-09-30T03:11:57.867Z,101337.02
2017-09-30T03:14:26.481Z,101335.11
2017-09-30T03:16:55.168Z,101328.28
2017-09-30T03:19:23.801Z,101321.73
2017-09-30T03:21:52.455Z,101317.58
2017-09-30T03:24:21.085Z,101314.29
2017-09-30T03:26:49.738Z,101311.83
2017-09-30T03:29:18.402Z,101294.21
2017-09-30T03:31:47.023Z,101285.36
2017-09-30T03:34:15.685Z,101284.15
2017-09-30T03:36:44.363Z,101272.94
2017-09-30T03:39:12.980Z,101271.61
2017-09-30T03:41:41.641Z,101282.44
2017-09-30T03:44:10.268Z,101286.14
2017-09-30T03:46:38.992Z,101273.69
2017-09-30T03:49:07.613Z,101266.67
2017-09-30T03:51:36.235Z,101276.17
2017-09-30T03:54:04.991Z,101282.22
2017-09-30T03:56:33.605Z,101280.38
2017-09-30T03:59:02.288Z,101271.47
2017-09-30T04:01:30.899Z,101271.92
2017-09-30T04:03:59.427Z,101272.98
2017-09-30T04:06:28.046Z,101266.40
2017-09-30T04:08:56.685Z,101258.36
2017-09-30T04:11:29.860Z,101260.40
2017-09-30T04:14:09.792Z,101256.48
2017-09-30T04:16:41.960Z,101266.34
2017-09-30T04:19:11.905Z,101271.05
2017-09-30T04:21:40.652Z,101261.97
2017-09-30T04:24:10.266Z,101271.42
2017-09-30T04:26:38.925Z,101265.15
2017-09-30T04:29:07.594Z,101276.31
2017-09-30T04:31:36.214Z,101288.31
2017-09-30T04:34:04.885Z,101291.35
2017-09-30T04:36:33.492Z,101286.23
2017-09-30T04:39:02.156Z,101287.15
2017-09-30T04:41:30.781Z,101278.56
2017-09-30T04:43:59.434Z,101282.94
2017-09-30T04:46:27.741Z,101282.16
2017-09-30T04:48:56.786Z,101283.95
2017-09-30T04:51:25.407Z,101281.91
2017-09-30T04:53:54.214Z,101288.00
2017-09-30T04:56:22.852Z,101287.63
2017-09-30T04:58:51.505Z,101290.77
2017-09-30T05:01:20.113Z,101289.47
2017-09-30T05:03:48.846Z,101286.05
2017-09-30T05:06:17.516Z,101278.35
2017-09-30T05:08:46.141Z,101286.97
2017-09-30T05:11:14.801Z,101287.39
2017-09-30T05:13:43.541Z,101290.47
2017-09-30T05:16:12.157Z,101286.59
2017-09-30T05:18:40.838Z,101285.77
2017-09-30T05:21:09.466Z,101293.14
2017-09-30T05:23:38.138Z,101287.33
2017-09-30T05:26:06.781Z,101285.11
2017-09-30T05:28:38.057Z,101288.61
2017-09-30T05:31:06.702Z,101292.66
2017-09-30T05:33:35.361Z,101291.04
2017-09-30T05:36:04.027Z,101290.45
2017-09-30T05:38:34.831Z,101290.87
2017-09-30T05:41:06.433Z,101294.70
2017-09-30T05:43:35.037Z,101293.08
2017-09-30T05:46:04.657Z,101294.45
2017-09-30T05:48:38.101Z,101291.45
2017-09-30T05:51:06.727Z,101290.12
2017-09-30T05:53:35.393Z,101289.45
2017-09-30T05:56:04.039Z,101294.37
2017-09-30T05:58:45.077Z,101290.22
2017-09-30T06:01:13.689Z,101295.67
2017-09-30T06:03:42.316Z,101301.05
2017-09-30T06:06:10.989Z,101298.72
2017-09-30T06:08:43.656Z,101297.42
2017-09-30T06:11:27.676Z,101296.04
2017-09-30T06:14:06.752Z,101298.38
2017-09-30T06:16:47.523Z,101303.84
2017-09-30T06:19:28.270Z,101313.12
2017-09-30T06:22:10.666Z,101316.50
2017-09-30T06:24:50.540Z,101313.42
2017-09-30T06:27:27.976Z,101314.00
2017-09-30T06:30:05.362Z,101316.08
2017-09-30T06:32:49.244Z,101321.66
2017-09-30T06:35:29.404Z,101324.62
2017-09-30T06:38:05.654Z,101325.95
2017-09-30T06:40:44.837Z,101322.08
2017-09-30T06:43:28.223Z,101322.20
2017-09-30T06:46:06.981Z,101317.41
2017-09-30T06:48:37.414Z,101317.75
2017-09-30T06:51:20.845Z,101308.30
2017-09-30T06:53:58.704Z,101308.75
2017-09-30T06:56:37.627Z,101306.55
2017-09-30T06:59:26.122Z,101301.38
2017-09-30T07:01:59.223Z,101304.00
2017-09-30T07:04:27.851Z,101311.67
2017-09-30T07:06:56.505Z,101306.42
2017-09-30T07:09:28.423Z,101305.83
2017-09-30T07:11:57.233Z,101309.16
2017-09-30T07:14:25.865Z,101312.53
2017-09-30T07:16:55.570Z,101308.03
2017-09-30T07:19:24.286Z,101309.18
2017-09-30T07:21:54.395Z,101306.55
2017-09-30T07:24:23.513Z,101299.97
2017-09-30T07:26:55.490Z,101298.97
2017-09-30T07:29:24.118Z,101300.09
2017-09-30T07:31:52.777Z,101302.25
2017-09-30T07:34:21.391Z,101295.11
2017-09-30T07:36:55.757Z,101297.94
2017-09-30T07:39:31.250Z,101286.64
2017-09-30T07:42:11.688Z,101290.87
2017-09-30T07:44:44.380Z,101288.17
2017-09-30T07:47:21.448Z,101280.38
2017-09-30T07:49:54.688Z,101287.16
2017-09-30T07:52:37.556Z,101279.74
2017-09-30T07:55:18.725Z,101280.07
2017-09-30T07:57:52.523Z,101273.00
2017-09-30T08:00:26.616Z,101273.84
2017-09-30T08:03:07.879Z,101262.95
2017-09-30T08:05:48.455Z,101257.33
2017-09-30T08:08:24.476Z,101254.98
2017-09-30T08:13:45.101Z,101252.62
2017-09-30T08:16:21.217Z,101258.48
2017-09-30T08:18:55.784Z,101255.76
2017-09-30T08:21:33.146Z,101256.87
2017-09-30T08:24:10.176Z,101254.19
2017-09-30T08:26:41.674Z,101248.38
2017-09-30T08:29:20.617Z,101244.83
2017-09-30T08:31:59.570Z,101244.64
2017-09-30T08:34:38.467Z,101242.80
2017-09-30T08:37:15.040Z,101239.61
2017-09-30T08:39:49.443Z,101236.00
2017-09-30T08:42:26.716Z,101231.44
2017-09-30T08:45:05.613Z,101232.95
2017-09-30T08:47:41.022Z,101236.19
2017-09-30T08:50:18.191Z,101235.08
2017-09-30T08:52:52.337Z,101235.34
2017-09-30T08:55:21.949Z,101226.52
2017-09-30T08:57:53.070Z,101215.06
2017-09-30T09:00:23.325Z,101221.28
2017-09-30T09:02:55.018Z,101211.53
2017-09-30T09:05:25.231Z,101211.79
2017-09-30T09:07:57.972Z,101210.21
2017-09-30T09:10:30.549Z,101208.78
2017-09-30T09:13:02.106Z,101210.70
2017-09-30T09:15:33.695Z,101207.92
2017-09-30T09:18:10.175Z,101202.14
2017-09-30T09:20:44.434Z,101200.60
2017-09-30T09:23:16.444Z,101195.27
2017-09-30T09:25:48.153Z,101183.38
2017-09-30T09:28:20.919Z,101183.23
2017-09-30T09:33:28.984Z,101180.56
2017-09-30T09:36:02.669Z,101170.80
2017-09-30T09:38:38.755Z,101168.92
2017-09-30T09:41:14.453Z,101181.15
2017-09-30T09:43:46.855Z,101183.06
2017-09-30T09:46:19.322Z,101180.31
2017-09-30T09:48:49.204Z,101177.98
2017-09-30T09:51:21.114Z,101176.03
2017-09-30T09:53:53.992Z,101172.19
2017-09-30T09:56:25.958Z,101165.98
2017-09-30T09:58:57.234Z,101171.33
2017-09-30T10:01:30.150Z,101170.95
2017-09-30T10:04:02.535Z,101176.72
2017-09-30T10:06:35.272Z,101179.04
2017-09-30T10:09:09.201Z,101174.90
2017-09-30T10:11:41.123Z,101174.62
2017-09-30T10:14:18.743Z,101168.63
2017-09-30T10:16:55.913Z,101167.90
2017-09-30T10:19:28.314Z,101167.11
2017-09-30T10:22:01.598Z,101162.01
2017-09-30T10:24:33.669Z,101162.63
2017-09-30T10:27:14.153Z,101157.97
2017-09-30T10:29:52.190Z,101159.39
2017-09-30T10:32:25.488Z,101160.84
2017-09-30T10:34:57.761Z,101158.05
2017-09-30T10:37:31.584Z,101159.94
2017-09-30T10:40:05.804Z,101151.06
2017-09-30T10:42:38.352Z,101154.38
2017-09-30T10:45:11.324Z,101158.81
2017-09-30T10:47:47.709Z,101154.33
2017-09-30T10:50:20.722Z,101154.95
2017-09-30T10:52:55.044Z,101163.73
2017-09-30T10:55:28.594Z,101157.98
2017-09-30T10:58:16.384Z,101166.59
2017-09-30T11:00:48.556Z,101168.31
2017-09-30T11:03:23.692Z,101175.89
2017-09-30T11:05:56.194Z,101179.16
2017-09-30T11:11:19.700Z,101184.54
2017-09-30T11:13:54.055Z,101178.00
2017-09-30T11:16:33.941Z,101176.98
2017-09-30T11:19:06.945Z,101172.16
2017-09-30T11:21:43.199Z,101175.06
2017-09-30T11:24:17.900Z,101165.87
2017-09-30T11:26:48.669Z,101161.63
2017-09-30T11:29:25.837Z,101161.16
2017-09-30T11:32:00.304Z,101152.95
2017-09-30T11:34:33.213Z,101145.95
2017-09-30T11:37:05.245Z,101140.81
2017-09-30T11:39:38.148Z,101135.09
2017-09-30T11:42:11.264Z,101133.75
2017-09-30T11:44:44.325Z,101131.20
2017-09-30T11:47:16.881Z,101137.74
2017-09-30T11:49:51.544Z,101129.96
2017-09-30T11:52:23.737Z,101124.36
2017-09-30T11:54:56.561Z,101122.17
2017-09-30T11:57:30.315Z,101126.17
2017-09-30T12:00:01.859Z,101120.98
2017-09-30T12:02:36.991Z,101126.48
2017-09-30T12:05:09.229Z,101127.73
2017-09-30T12:07:45.244Z,101126.84
2017-09-30T12:10:17.482Z,101124.77
2017-09-30T12:12:57.505Z,101118.23
2017-09-30T12:15:33.344Z,101116.10
2017-09-30T12:18:07.959Z,101116.00
2017-09-30T12:20:42.248Z,101115.05
2017-09-30T12:23:17.044Z,101109.81
2017-09-30T12:25:46.899Z,101099.84
2017-09-30T12:28:19.626Z,101098.55
2017-09-30T12:30:51.972Z,101096.31
2017-09-30T12:33:29.310Z,101104.08
2017-09-30T12:35:59.118Z,101103.55
2017-09-30T12:38:30.605Z,101113.11
2017-09-30T12:41:07.082Z,101104.96
2017-09-30T12:43:41.181Z,101101.01
2017-09-30T12:46:17.291Z,101098.42
2017-09-30T12:48:53.332Z,101101.14
2017-09-30T12:51:30.750Z,101093.72
2017-09-30T12:54:00.733Z,101093.41
2017-09-30T12:56:33.598Z,101086.09
2017-09-30T12:59:06.465Z,101089.63
2017-09-30T13:01:43.821Z,101090.52
2017-09-30T13:04:21.412Z,101088.39
2017-09-30T13:06:53.119Z,101088.80
2017-09-30T13:09:26.132Z,101088.80
2017-09-30T13:11:56.599Z,101090.63
2017-09-30T13:14:32.647Z,101088.91
2017-09-30T13:17:07.025Z,101087.31
2017-09-30T13:19:40.107Z,101088.36
2017-09-30T13:22:14.623Z,101086.59
2017-09-30T13:24:48.249Z,101086.12
2017-09-30T13:27:20.436Z,101077.92
2017-09-30T13:29:53.893Z,101078.23
2017-09-30T13:32:35.153Z,101083.11
2017-09-30T13:35:11.646Z,101085.24
2017-09-30T13:37:44.809Z,101083.95
2017-09-30T13:40:17.750Z,101085.77
2017-09-30T13:42:48.450Z,101087.95
2017-09-30T13:45:23.202Z,101086.23
2017-09-30T13:47:54.426Z,101086.12
2017-09-30T13:50:30.415Z,101083.89
2017-09-30T13:53:05.496Z,101081.66
2017-09-30T13:55:39.668Z,101067.27
2017-09-30T13:58:12.990Z,101069.81
2017-09-30T14:00:44.848Z,101070.17
2017-09-30T14:03:17.914Z,101070.48
2017-09-30T14:05:50.635Z,101064.40
2017-09-30T14:08:23.574Z,101057.50
2017-09-30T14:10:55.727Z,101060.43
2017-09-30T14:13:27.893Z,101057.45
2017-09-30T14:16:02.676Z,101053.94
2017-09-30T14:18:40.118Z,101055.24
2017-09-30T14:21:13.699Z,101050.91
2017-09-30T14:23:46.721Z,101047.53
2017-09-30T14:26:18.677Z,101046.77
2017-09-30T14:28:50.353Z,101041.93
2017-09-30T14:31:26.313Z,101029.95
2017-09-30T14:34:02.258Z,101030.06
2017-09-30T14:36:39.992Z,101023.63
2017-09-30T14:39:14.153Z,101024.57
2017-09-30T14:41:49.371Z,101027.33
2017-09-30T14:44:20.393Z,101027.45
2017-09-30T14:46:54.257Z,101021.03
2017-09-30T14:49:28.273Z,101021.45
2017-09-30T14:52:05.773Z,101019.02
2017-09-30T14:54:40.293Z,101016.48
2017-09-30T14:57:14.329Z,101011.46
2017-09-30T14:59:47.788Z,101009.75
2017-09-30T15:02:20.173Z,101001.55
2017-09-30T15:04:55.996Z,101000.78
2017-09-30T15:07:33.699Z,100998.30
2017-09-30T15:10:08.703Z,101000.56
2017-09-30T15:12:40.730Z,100997.11
2017-09-30T15:15:13.539Z,100990.77
2017-09-30T15:17:44.271Z,100997.25
2017-09-30T15:20:19.745Z,100992.95
2017-09-30T15:22:54.256Z,100990.93
2017-09-30T15:25:27.327Z,100990.46
2017-09-30T15:28:01.764Z,100982.79
2017-09-30T15:30:39.004Z,100987.15
2017-09-30T15:33:14.236Z,100987.62
2017-09-30T15:35:47.161Z,100985.61
2017-09-30T15:38:21.004Z,100978.23
2017-09-30T15:40:53.551Z,100972.34
2017-09-30T15:43:27.246Z,100972.80
2017-09-30T15:46:00.497Z,100966.40
2017-09-30T15:51:10.601Z,100969.10
2017-09-30T15:53:42.112Z,100964.80
2017-09-30T15:56:15.351Z,100964.03
2017-09-30T15:58:47.282Z,100959.78
2017-09-30T16:01:19.275Z,100967.56
2017-09-30T16:03:52.584Z,100962.86
2017-09-30T16:06:22.842Z,100962.03
2017-09-30T16:08:56.359Z,100963.39
2017-09-30T16:11:27.515Z,100971.64
2017-09-30T16:14:01.128Z,100969.98
2017-09-30T16:16:36.015Z,100971.75
2017-09-30T16:19:08.584Z,100967.94
2017-09-30T16:21:43.269Z,100967.11
2017-09-30T16:24:13.386Z,100967.63
2017-09-30T16:26:45.653Z,100954.78
2017-09-30T16:29:19.860Z,100958.72
2017-09-30T16:31:50.865Z,100963.08
2017-09-30T16:34:23.025Z,100960.13
2017-09-30T16:37:03.685Z,100952.52
2017-09-30T16:39:37.473Z,100953.45
2017-09-30T16:42:09.285Z,100953.98
2017-09-30T16:44:41.596Z,100947.98
2017-09-30T16:47:14.752Z,100946.75
2017-09-30T16:49:50.365Z,100952.87
2017-09-30T16:52:20.879Z,100951.73
2017-09-30T16:54:54.184Z,100950.08
2017-09-30T16:57:27.573Z,100950.08
2017-09-30T16:59:59.703Z,100949.72
2017-09-30T17:02:32.844Z,100945.89
2017-09-30T17:05:04.453Z,100944.76
2017-09-30T17:07:37.191Z,100940.45
2017-09-30T17:10:10.667Z,100940.17
2017-09-30T17:12:46.094Z,100939.77
2017-09-30T17:15:19.542Z,100942.00
2017-09-30T17:17:53.989Z,100939.92
2017-09-30T17:20:25.236Z,100933.97
2017-09-30T17:22:59.605Z,100926.25
2017-09-30T17:25:35.437Z,100925.58
2017-09-30T17:28:10.221Z,100921.34
2017-09-30T17:30:46.088Z,100923.88
2017-09-30T17:33:21.410Z,100922.22
2017-09-30T17:35:51.401Z,100918.80
2017-09-30T17:38:26.501Z,100918.05
2017-09-30T17:41:04.445Z,100918.93
2017-09-30T17:43:37.348Z,100922.81
2017-09-30T17:46:09.330Z,100924.69
2017-09-30T17:48:41.641Z,100924.22
2017-09-30T17:51:13.284Z,100916.09
2017-09-30T17:53:44.856Z,100923.39
2017-09-30T17:56:19.475Z,100922.16
2017-09-30T17:58:51.148Z,100927.34
2017-09-30T18:01:24.962Z,100929.05
2017-09-30T18:03:56.135Z,100925.32
2017-09-30T18:06:29.814Z,100923.20
2017-09-30T18:09:03.162Z,100925.73
2017-09-30T18:11:35.749Z,100920.19
2017-09-30T18:14:08.794Z,100919.37
2017-09-30T18:16:42.593Z,100916.41
2017-09-30T18:19:15.889Z,100912.95
2017-09-30T18:21:50.415Z,100913.47
2017-09-30T18:24:25.540Z,100909.63
2017-09-30T18:27:06.106Z,100901.45
2017-09-30T18:29:39.453Z,100910.18
2017-09-30T18:32:11.673Z,100902.45
2017-09-30T18:34:47.582Z,100908.05
2017-09-30T18:37:25.192Z,100908.16
2017-09-30T18:39:58.164Z,100909.62
2017-09-30T18:42:30.713Z,100915.63
2017-09-30T18:45:01.057Z,100915.84
2017-09-30T18:47:32.815Z,100918.85
2017-09-30T18:50:06.252Z,100920.62
2017-09-30T18:52:44.984Z,100922.80
2017-09-30T18:55:25.975Z,100921.55
2017-09-30T18:57:59.409Z,100920.44
2017-09-30T19:00:34.509Z,100923.19
2017-09-30T19:03:11.228Z,100915.78
2017-09-30T19:05:44.399Z,100921.17
2017-09-30T19:08:20.790Z,100919.88
2017-09-30T19:10:53.707Z,100925.94
2017-09-30T19:13:24.220Z,100922.22
2017-09-30T19:15:55.762Z,100919.68
2017-09-30T19:18:28.412Z,100924.09
2017-09-30T19:21:02.138Z,100926.27
2017-09-30T19:23:33.967Z,100935.52
2017-09-30T19:26:10.553Z,100943.85
2017-09-30T19:28:45.126Z,100949.50
2017-09-30T19:31:20.406Z,100956.03
2017-09-30T19:33:56.149Z,100953.19
2017-09-30T19:36:29.385Z,100961.31
2017-09-30T19:39:02.416Z,100961.73
2017-09-30T19:41:36.063Z,100960.13
2017-09-30T19:44:09.194Z,100956.37
2017-09-30T19:46:42.185Z,100959.12
2017-09-30T19:49:17.994Z,100969.52
2017-09-30T19:51:50.859Z,100976.05
2017-09-30T19:54:34.524Z,100978.75
2017-09-30T19:57:10.715Z,100979.21
2017-09-30T19:59:42.052Z,100983.61
2017-09-30T20:02:16.197Z,100979.42
2017-09-30T20:04:48.447Z,100977.02
2017-09-30T20:07:22.068Z,100982.66
2017-09-30T20:09:54.761Z,100985.30
2017-09-30T20:12:28.961Z,100984.67
2017-09-30T20:15:01.329Z,100983.90
2017-09-30T20:17:36.833Z,100985.24
2017-09-30T20:20:10.102Z,100981.12
2017-09-30T20:22:42.032Z,100982.98
2017-09-30T20:25:13.770Z,100992.52
2017-09-30T20:27:45.833Z,100995.17
2017-09-30T20:30:20.063Z,100986.63
2017-09-30T20:32:49.660Z,100995.43
2017-09-30T20:35:21.993Z,100993.53
2017-09-30T20:37:57.270Z,100991.77
2017-09-30T20:40:32.600Z,100996.53
2017-09-30T20:43:04.745Z,100997.46
2017-09-30T20:45:39.085Z,100996.69
2017-09-30T20:48:12.878Z,100996.17
2017-09-30T20:50:45.022Z,100998.86
2017-09-30T20:53:21.598Z,101013.46
2017-09-30T20:55:55.351Z,101016.10
2017-09-30T20:58:28.920Z,101022.16
2017-09-30T21:01:01.914Z,101022.20
2017-09-30T21:03:35.480Z,101025.72
2017-09-30T21:06:04.277Z,101023.97
2017-09-30T21:08:40.116Z,101027.12
2017-09-30T21:11:16.213Z,101021.43
2017-09-30T21:13:48.283Z,101033.48
2017-09-30T21:16:21.580Z,101037.37
2017-09-30T21:18:54.029Z,101041.25
2017-09-30T21:21:28.471Z,101046.12
2017-09-30T21:24:00.402Z,101049.69
2017-09-30T21:26:35.229Z,101052.44
2017-09-30T21:29:11.382Z,101058.65
2017-09-30T21:31:44.967Z,101058.33
2017-09-30T21:34:21.122Z,101061.22
2017-09-30T21:36:52.256Z,101067.91
2017-09-30T21:39:26.057Z,101067.59
2017-09-30T21:42:00.730Z,101081.97
2017-09-30T21:44:32.759Z,101083.92
2017-09-30T21:47:06.876Z,101078.75
2017-09-30T21:49:39.451Z,101086.72
2017-09-30T21:52:14.198Z,101087.70
2017-09-30T21:54:47.370Z,101093.94
2017-09-30T21:57:19.437Z,101093.69
2017-09-30T21:59:51.229Z,101097.81
2017-09-30T22:02:25.011Z,101105.63
2017-09-30T22:04:58.627Z,101114.55
2017-09-30T22:07:30.618Z,101112.08
2017-09-30T22:10:03.602Z,101118.27
2017-09-30T22:12:35.309Z,101115.51
2017-09-30T22:15:09.103Z,101118.14
2017-09-30T22:17:43.757Z,101113.53
2017-09-30T22:20:18.573Z,101119.44
2017-09-30T22:22:55.043Z,101120.88
2017-09-30T22:25:28.706Z,101120.05
2017-09-30T22:28:00.861Z,101126.15
2017-09-30T22:30:33.990Z,101124.02
2017-09-30T22:33:07.384Z,101127.12
2017-09-30T22:35:53.456Z,101134.48
2017-09-30T22:38:36.260Z,101131.22
2017-09-30T22:41:20.236Z,101125.44
2017-09-30T22:44:03.033Z,101124.94
2017-09-30T22:46:53.401Z,101127.06
2017-09-30T22:49:30.726Z,101133.66
2017-09-30T22:52:14.786Z,101131.22
2017-09-30T22:54:59.612Z,101134.70
2017-09-30T22:57:59.671Z,101135.67
2017-09-30T23:00:32.061Z,101144.30
2017-09-30T23:03:18.158Z,101144.76
2017-09-30T23:11:08.260Z,101144.25
2017-09-30T23:13:41.921Z,101146.52
2017-09-30T23:16:19.903Z,101144.87
2017-09-30T23:18:55.205Z,101152.30
2017-09-30T23:21:28.934Z,101154.60
2017-09-30T23:24:00.014Z,101168.41
2017-09-30T23:26:32.952Z,101172.74
2017-09-30T23:29:04.982Z,101169.78
2017-09-30T23:31:39.739Z,101175.98
2017-09-30T23:34:19.003Z,101177.88
2017-09-30T23:36:57.549Z,101174.80
2017-09-30T23:39:34.293Z,101173.64
2017-09-30T23:42:08.004Z,101174.05
2017-09-30T23:44:55.547Z,101180.83
2017-09-30T23:47:29.545Z,101187.70
2017-09-30T23:50:08.350Z,101191.62
2017-09-30T23:52:43.918Z,101187.34
2017-09-30T23:55:20.094Z,101187.89
2017-09-30T23:57:51.339Z,101187.52
